Time;durP1;ratioP1;P1;durP2;ratioP2;P2;SDS_P1;SDS_P2;PMS_P1;PMS_P2;Temp;Humidity;BMP_temperature;BMP_pressure;BME280_temperature;BME280_humidity;BME280_pressure;Samples;Min_cycle;Max_cycle;Signal;HPM_P1;HPM_P2
2023/03/16 00:01:16;;;;;;;8.25;2.80;;;4.00;99.90;;;;;;5050832;28;20116;-76
2023/03/16 00:03:42;;;;;;;7.95;2.80;;;4.00;99.90;;;;;;5051781;28;20045;-77
2023/03/16 00:06:07;;;;;;;6.68;2.65;;;4.00;99.90;;;;;;5034252;28;20068;-77
2023/03/16 00:08:34;;;;;;;9.15;2.95;;;4.00;99.90;;;;;;5050855;28;20055;-77
2023/03/16 00:11:02;;;;;;;6.95;2.78;;;4.00;99.90;;;;;;5051405;28;20124;-76
2023/03/16 00:13:28;;;;;;;7.22;2.90;;;4.00;99.90;;;;;;5038118;28;20128;-77
2023/03/16 00:15:57;;;;;;;8.77;3.13;;;4.00;99.90;;;;;;5031416;28;20493;-76
2023/03/16 00:18:26;;;;;;;8.98;2.97;;;3.90;99.90;;;;;;5046203;28;20057;-77
2023/03/16 00:20:54;;;;;;;10.13;3.20;;;4.00;99.90;;;;;;5016080;28;20088;-76
2023/03/16 00:23:26;;;;;;;8.95;2.90;;;4.00;99.90;;;;;;5045002;28;20122;-76
2023/03/16 00:26:03;;;;;;;8.75;2.90;;;3.90;99.90;;;;;;5050928;28;20056;-77
2023/03/16 00:28:34;;;;;;;11.50;3.10;;;3.90;99.90;;;;;;5050826;28;20056;-77
2023/03/16 00:31:04;;;;;;;6.95;2.72;;;4.00;99.90;;;;;;5054063;28;20048;-76
2023/03/16 00:33:33;;;;;;;10.40;3.30;;;3.90;99.90;;;;;;5054551;28;20190;-76
2023/03/16 00:36:06;;;;;;;9.60;3.17;;;3.90;99.90;;;;;;5043829;28;20071;-76
2023/03/16 00:38:35;;;;;;;7.65;2.95;;;3.90;99.90;;;;;;5037885;28;20048;-76
2023/03/16 00:41:05;;;;;;;10.43;3.13;;;3.90;99.90;;;;;;5054621;28;20052;-76
2023/03/16 00:43:39;;;;;;;10.57;3.55;;;3.90;99.90;;;;;;5054953;28;20044;-77
2023/03/16 00:46:13;;;;;;;7.80;3.20;;;3.90;99.90;;;;;;5053697;28;20041;-77
2023/03/16 00:48:41;;;;;;;7.53;3.03;;;3.90;99.90;;;;;;5037760;28;20060;-77
2023/03/16 00:51:13;;;;;;;9.80;3.40;;;3.90;99.90;;;;;;5054242;28;20124;-76
2023/03/16 00:53:41;;;;;;;8.85;3.58;;;3.90;99.90;;;;;;5054496;28;20049;-76
2023/03/16 00:56:07;;;;;;;12.30;3.90;;;3.90;99.90;;;;;;5053790;28;20409;-76
2023/03/16 00:58:34;;;;;;;11.63;3.58;;;3.90;99.90;;;;;;5054345;28;20056;-76
2023/03/16 01:01:09;;;;;;;8.10;3.40;;;3.90;99.90;;;;;;5053997;28;20503;-76
2023/03/16 01:03:35;;;;;;;10.02;3.65;;;3.90;99.90;;;;;;5053603;28;20500;-77
2023/03/16 01:06:14;;;;;;;8.23;3.60;;;3.90;99.90;;;;;;5053701;28;20053;-76
2023/03/16 01:08:40;;;;;;;7.57;3.30;;;3.90;99.90;;;;;;5050592;28;20060;-76
2023/03/16 01:11:11;;;;;;;9.35;3.58;;;3.90;99.90;;;;;;5048530;28;20056;-76
2023/03/16 01:13:38;;;;;;;8.77;3.70;;;3.90;99.90;;;;;;5049769;28;20140;-76
2023/03/16 01:16:05;;;;;;;9.95;3.53;;;3.90;99.90;;;;;;5053597;28;20071;-76
2023/03/16 01:18:34;;;;;;;12.40;3.55;;;3.90;99.90;;;;;;5054621;28;20045;-76
2023/03/16 01:21:03;;;;;;;10.27;3.42;;;3.90;99.90;;;;;;5054834;28;20045;-76
2023/03/16 01:23:30;;;;;;;8.77;3.38;;;3.90;99.90;;;;;;5053438;28;20056;-76
2023/03/16 01:25:57;;;;;;;7.38;3.25;;;3.90;99.90;;;;;;5053124;28;20477;-76
2023/03/16 01:28:24;;;;;;;10.38;3.20;;;3.80;99.90;;;;;;5054035;28;20461;-76
2023/03/16 01:30:53;;;;;;;7.22;2.88;;;3.90;99.90;;;;;;5053276;28;20084;-76
2023/03/16 01:33:22;;;;;;;7.47;3.20;;;3.90;99.90;;;;;;5053405;28;20047;-77
2023/03/16 01:35:56;;;;;;;8.57;3.10;;;3.90;99.90;;;;;;5019591;28;20079;-76
2023/03/16 01:38:22;;;;;;;6.88;2.90;;;3.80;99.90;;;;;;5053477;28;20132;-76
2023/03/16 01:40:50;;;;;;;9.07;3.15;;;3.80;99.90;;;;;;5052647;28;20053;-76
2023/03/16 01:43:18;;;;;;;9.35;2.88;;;3.80;99.90;;;;;;5039180;28;20071;-76
2023/03/16 01:46:05;;;;;;;11.95;3.10;;;3.80;99.90;;;;;;5053718;28;20041;-76
2023/03/16 01:48:52;;;;;;;8.43;3.20;;;3.80;99.90;;;;;;5041028;28;20481;-76
2023/03/16 01:51:24;;;;;;;8.25;2.70;;;3.80;99.90;;;;;;5052514;28;20057;-76
2023/03/16 01:54:13;;;;;;;8.30;3.10;;;3.80;99.90;;;;;;5054777;28;20053;-76
2023/03/16 01:56:47;;;;;;;9.98;3.20;;;3.80;99.90;;;;;;5053265;28;20496;-76
2023/03/16 01:59:17;;;;;;;8.52;3.20;;;3.80;99.90;;;;;;5052760;28;20102;-76
2023/03/16 02:01:44;;;;;;;7.78;3.10;;;3.80;99.90;;;;;;5052411;28;20118;-77
2023/03/16 02:04:32;;;;;;;7.97;3.30;;;3.80;99.90;;;;;;5036611;28;20187;-76
2023/03/16 02:06:59;;;;;;;9.15;3.50;;;3.70;99.90;;;;;;5051992;28;20504;-76
2023/03/16 02:09:25;;;;;;;8.65;3.00;;;3.70;99.90;;;;;;5053342;28;20041;-76
2023/03/16 02:11:54;;;;;;;6.72;3.05;;;3.60;99.90;;;;;;5049983;28;20041;-76
2023/03/16 02:14:20;;;;;;;8.20;3.17;;;3.70;99.90;;;;;;5043298;28;20059;-76
2023/03/16 02:16:47;;;;;;;7.35;2.97;;;3.70;99.90;;;;;;5052385;28;20079;-77
2023/03/16 02:19:46;;;;;;;8.63;3.30;;;3.70;99.90;;;;;;5052892;28;20037;-77
2023/03/16 02:22:12;;;;;;;8.00;3.08;;;3.70;99.90;;;;;;5050427;28;20558;-77
2023/03/16 02:24:38;;;;;;;8.88;3.40;;;3.60;99.90;;;;;;5048070;28;20124;-76
2023/03/16 02:27:11;;;;;;;8.52;3.40;;;3.60;99.90;;;;;;5032454;28;20068;-77
2023/03/16 02:29:54;;;;;;;8.07;2.97;;;3.50;99.90;;;;;;5035947;28;20209;-77
2023/03/16 02:32:23;;;;;;;8.15;3.10;;;3.60;99.90;;;;;;5051929;28;20128;-77
2023/03/16 02:34:49;;;;;;;8.80;3.25;;;3.50;99.90;;;;;;5038331;28;20094;-76
2023/03/16 02:37:14;;;;;;;9.20;3.47;;;3.50;99.90;;;;;;5048866;28;20124;-76
2023/03/16 02:39:42;;;;;;;7.88;2.95;;;3.50;99.90;;;;;;5046323;28;20489;-76
2023/03/16 02:42:14;;;;;;;11.85;3.88;;;3.60;99.90;;;;;;5036204;28;20398;-76
2023/03/16 02:44:42;;;;;;;8.88;3.17;;;3.60;99.90;;;;;;5047051;28;20048;-76
2023/03/16 02:47:23;;;;;;;8.75;3.13;;;3.60;99.90;;;;;;5031384;28;20049;-76
2023/03/16 02:49:49;;;;;;;6.47;2.88;;;3.60;99.90;;;;;;5047362;28;20057;-76
2023/03/16 02:52:15;;;;;;;7.97;3.42;;;3.60;99.90;;;;;;5035379;28;20136;-76
2023/03/16 02:54:41;;;;;;;9.13;2.75;;;3.60;99.90;;;;;;5052280;28;20049;-76
2023/03/16 02:57:07;;;;;;;8.80;3.55;;;3.60;99.90;;;;;;5033840;28;20120;-76
2023/03/16 02:59:32;;;;;;;10.50;3.55;;;3.60;99.90;;;;;;5039719;28;20073;-76
2023/03/16 03:01:58;;;;;;;9.55;3.35;;;3.60;99.90;;;;;;5031098;28;20045;-76
2023/03/16 03:04:24;;;;;;;8.25;3.67;;;3.60;99.90;;;;;;5035573;28;20052;-76
2023/03/16 03:06:50;;;;;;;8.93;3.33;;;3.60;99.90;;;;;;5051336;28;20048;-76
2023/03/16 03:09:17;;;;;;;8.10;3.33;;;3.60;99.90;;;;;;5052710;28;20040;-77
2023/03/16 03:11:43;;;;;;;8.20;3.47;;;3.60;99.90;;;;;;5049885;28;20128;-77
2023/03/16 03:14:09;;;;;;;9.30;4.00;;;3.60;99.90;;;;;;5050986;28;20049;-76
2023/03/16 03:16:35;;;;;;;8.15;3.60;;;3.60;99.90;;;;;;5051426;28;20103;-75
2023/03/16 03:19:01;;;;;;;8.27;3.55;;;3.70;99.90;;;;;;5052356;28;20482;-76
2023/03/16 03:21:28;;;;;;;9.13;3.38;;;3.80;99.90;;;;;;5043453;28;20045;-76
2023/03/16 03:23:55;;;;;;;10.50;3.60;;;3.70;99.90;;;;;;5034909;28;20048;-76
2023/03/16 03:26:21;;;;;;;8.38;3.38;;;3.80;99.90;;;;;;5052767;28;20049;-77
2023/03/16 03:28:47;;;;;;;8.45;3.60;;;3.80;99.90;;;;;;5051242;28;20045;-76
2023/03/16 03:31:14;;;;;;;9.63;3.65;;;3.80;99.90;;;;;;5035016;28;20044;-75
2023/03/16 03:33:40;;;;;;;7.22;3.35;;;3.80;99.90;;;;;;5047936;28;20057;-76
2023/03/16 03:36:06;;;;;;;7.72;3.58;;;3.80;99.90;;;;;;5046955;28;20114;-76
2023/03/16 03:38:32;;;;;;;8.75;3.70;;;3.80;99.90;;;;;;5051596;28;20045;-76
2023/03/16 03:41:00;;;;;;;5.65;2.58;;;3.80;99.90;;;;;;5051397;28;20052;-76
2023/03/16 03:43:26;;;;;;;8.98;3.50;;;3.80;99.90;;;;;;5052690;28;20373;-76
2023/03/16 03:45:59;;;;;;;7.13;3.42;;;3.80;99.90;;;;;;5051995;28;20097;-76
2023/03/16 03:48:26;;;;;;;8.85;3.58;;;4.10;99.90;;;;;;5050975;28;20045;-76
2023/03/16 03:50:51;;;;;;;9.15;3.30;;;3.80;99.90;;;;;;5047983;28;20057;-76
2023/03/16 03:53:18;;;;;;;7.50;3.70;;;3.80;99.90;;;;;;5035110;28;20041;-76
2023/03/16 03:55:44;;;;;;;8.00;3.85;;;3.80;99.90;;;;;;5052442;28;20037;-75
2023/03/16 03:58:11;;;;;;;7.95;3.38;;;3.80;99.90;;;;;;5051295;28;20375;-76
2023/03/16 04:00:37;;;;;;;7.72;3.20;;;3.80;99.90;;;;;;5051369;28;20056;-76
2023/03/16 04:03:04;;;;;;;8.27;3.60;;;3.80;99.90;;;;;;5030787;28;20049;-76
2023/03/16 04:05:29;;;;;;;6.15;2.70;;;3.90;99.90;;;;;;5050335;28;20061;-76
2023/03/16 04:07:56;;;;;;;8.45;3.20;;;3.80;99.90;;;;;;5035520;28;20053;-76
2023/03/16 04:10:27;;;;;;;8.88;3.58;;;3.90;99.90;;;;;;5036873;28;20048;-76
2023/03/16 04:12:54;;;;;;;8.23;3.70;;;3.90;99.90;;;;;;5054552;28;20047;-76
2023/03/16 04:15:21;;;;;;;7.50;3.30;;;3.90;99.90;;;;;;5055200;28;20041;-76
2023/03/16 04:17:48;;;;;;;7.18;3.80;;;3.90;99.90;;;;;;5054980;28;20045;-74
2023/03/16 04:20:18;;;;;;;8.80;3.80;;;3.90;99.90;;;;;;5054513;28;20045;-76
2023/03/16 04:22:44;;;;;;;10.65;3.85;;;3.90;99.90;;;;;;5037885;28;20127;-76
2023/03/16 04:25:11;;;;;;;4.40;1.77;;;3.90;99.90;;;;;;5038126;28;20056;-76
2023/03/16 04:27:36;;;;;;;6.97;3.33;;;3.90;99.90;;;;;;5055307;28;20045;-76
2023/03/16 04:30:10;;;;;;;8.43;2.80;;;3.90;99.90;;;;;;5056063;28;20120;-76
2023/03/16 04:32:36;;;;;;;10.63;4.07;;;4.00;99.90;;;;;;5034053;28;20506;-77
2023/03/16 04:35:02;;;;;;;7.15;3.97;;;3.90;99.90;;;;;;5018360;28;20042;-76
2023/03/16 04:37:28;;;;;;;9.43;4.10;;;3.90;99.90;;;;;;5031636;28;20085;-76
2023/03/16 04:39:54;;;;;;;8.30;4.22;;;3.90;99.90;;;;;;5049684;28;20446;-76
2023/03/16 04:42:20;;;;;;;8.45;3.40;;;3.90;99.90;;;;;;5047726;28;20049;-76
2023/03/16 04:44:46;;;;;;;8.60;4.20;;;3.90;99.90;;;;;;5038213;28;20106;-76
2023/03/16 04:47:14;;;;;;;9.00;4.30;;;3.90;99.90;;;;;;5036907;28;20052;-76
2023/03/16 04:49:40;;;;;;;7.55;3.00;;;3.90;99.90;;;;;;5021640;28;20044;-76
2023/03/16 04:52:06;;;;;;;9.23;4.22;;;3.90;99.90;;;;;;5020454;28;20047;-76
2023/03/16 04:54:32;;;;;;;7.78;2.83;;;3.90;99.90;;;;;;5037516;28;20105;-76
2023/03/16 04:56:59;;;;;;;9.70;3.50;;;3.90;99.90;;;;;;5054206;28;20052;-76
2023/03/16 04:59:28;;;;;;;7.57;3.70;;;4.00;99.90;;;;;;5037903;28;20049;-76
2023/03/16 05:01:54;;;;;;;9.52;3.75;;;3.90;99.90;;;;;;5036549;28;20057;-76
2023/03/16 05:04:20;;;;;;;10.48;4.07;;;4.00;99.90;;;;;;5037916;28;20045;-76
2023/03/16 05:06:46;;;;;;;7.63;3.60;;;3.90;99.90;;;;;;5036702;28;20063;-77
2023/03/16 05:09:12;;;;;;;8.65;4.05;;;3.90;99.90;;;;;;5019736;28;20049;-76
2023/03/16 05:11:38;;;;;;;7.88;4.03;;;3.90;99.90;;;;;;5036550;28;20051;-76
2023/03/16 05:14:04;;;;;;;9.35;4.38;;;3.90;99.90;;;;;;5055290;28;20044;-76
2023/03/16 05:16:31;;;;;;;10.13;4.43;;;3.90;99.90;;;;;;5035703;28;20053;-77
2023/03/16 05:18:58;;;;;;;9.18;4.05;;;3.90;99.90;;;;;;5037043;28;20041;-76
2023/03/16 05:21:24;;;;;;;9.85;3.53;;;3.90;99.90;;;;;;5036524;28;20447;-76
2023/03/16 05:23:50;;;;;;;7.30;3.17;;;4.00;99.90;;;;;;5042746;28;20128;-76
2023/03/16 05:26:17;;;;;;;10.43;3.92;;;4.00;99.90;;;;;;5053657;28;20124;-76
2023/03/16 05:28:44;;;;;;;7.35;4.10;;;4.00;99.90;;;;;;5053816;28;20504;-76
2023/03/16 05:31:10;;;;;;;8.48;3.97;;;4.00;99.90;;;;;;5053962;28;20056;-76
2023/03/16 05:33:36;;;;;;;9.00;4.00;;;4.00;99.90;;;;;;5053362;28;20063;-76
2023/03/16 05:36:02;;;;;;;11.25;4.13;;;4.00;99.90;;;;;;5052859;28;20098;-76
2023/03/16 05:38:30;;;;;;;9.15;4.45;;;4.00;99.90;;;;;;5053669;28;20061;-77
2023/03/16 05:41:00;;;;;;;7.22;3.42;;;3.90;99.90;;;;;;5053437;28;20490;-76
2023/03/16 05:43:27;;;;;;;8.65;4.20;;;4.00;99.90;;;;;;5054511;28;20060;-76
2023/03/16 05:45:54;;;;;;;7.55;4.18;;;4.00;99.90;;;;;;5053798;28;20121;-77
2023/03/16 05:48:20;;;;;;;10.95;4.40;;;3.90;99.90;;;;;;5052780;28;20044;-76
2023/03/16 05:50:46;;;;;;;10.57;4.43;;;4.00;99.90;;;;;;5043507;28;20089;-76
2023/03/16 05:53:14;;;;;;;8.43;4.47;;;3.90;99.90;;;;;;5049941;28;20114;-76
2023/03/16 05:55:40;;;;;;;7.47;3.75;;;3.90;99.90;;;;;;5053575;28;20393;-76
2023/03/16 05:58:06;;;;;;;9.18;4.40;;;3.90;99.90;;;;;;5034796;28;20049;-76
2023/03/16 06:00:32;;;;;;;9.73;4.57;;;4.00;99.90;;;;;;5052913;28;20047;-76
2023/03/16 06:02:58;;;;;;;10.35;4.18;;;4.00;99.90;;;;;;5053997;28;20128;-76
2023/03/16 06:05:24;;;;;;;8.40;4.13;;;4.00;99.90;;;;;;5035837;28;20060;-76
2023/03/16 06:07:51;;;;;;;10.43;4.50;;;4.00;99.90;;;;;;5052801;28;20041;-77
2023/03/16 06:10:17;;;;;;;6.97;3.60;;;4.00;99.90;;;;;;5052290;28;20033;-77
2023/03/16 06:12:43;;;;;;;9.65;4.20;;;4.00;99.90;;;;;;5052779;28;20055;-76
2023/03/16 06:15:10;;;;;;;7.82;4.40;;;4.10;99.90;;;;;;5054117;28;20044;-76
2023/03/16 06:17:37;;;;;;;8.82;4.25;;;4.00;99.90;;;;;;5052525;28;20052;-76
2023/03/16 06:20:10;;;;;;;5.97;2.38;;;4.10;99.90;;;;;;5052985;28;20052;-77
2023/03/16 06:22:37;;;;;;;9.48;4.18;;;4.20;99.90;;;;;;5052362;28;20061;-76
2023/03/16 06:25:04;;;;;;;8.85;4.55;;;4.10;99.90;;;;;;5036002;28;20509;-77
2023/03/16 06:27:29;;;;;;;8.55;3.38;;;4.10;99.90;;;;;;5053147;28;20088;-77
2023/03/16 06:29:55;;;;;;;7.70;3.60;;;4.20;99.90;;;;;;5054031;28;20084;-76
2023/03/16 06:32:21;;;;;;;7.90;3.63;;;4.20;99.90;;;;;;5051773;28;20037;-76
2023/03/16 06:34:47;;;;;;;7.97;3.40;;;4.20;99.90;;;;;;5038359;28;20049;-77
2023/03/16 06:37:13;;;;;;;6.65;3.90;;;4.20;99.90;;;;;;5048635;28;20559;-74
2023/03/16 06:39:39;;;;;;;6.05;2.05;;;4.30;99.90;;;;;;5050396;28;20044;-76
2023/03/16 06:42:05;;;;;;;5.78;2.92;;;4.40;99.90;;;;;;5048670;28;20053;-75
2023/03/16 06:44:31;;;;;;;7.93;3.88;;;5.50;99.90;;;;;;5046177;28;20051;-77
2023/03/16 06:46:57;;;;;;;8.55;4.22;;;4.40;99.90;;;;;;5040817;28;20123;-76
2023/03/16 06:49:23;;;;;;;7.15;2.60;;;4.30;99.90;;;;;;5052500;28;20527;-76
2023/03/16 06:51:48;;;;;;;10.80;4.15;;;4.40;99.90;;;;;;5052621;28;20068;-77
2023/03/16 06:54:14;;;;;;;9.77;3.78;;;4.40;99.90;;;;;;5053322;28;20052;-77
2023/03/16 06:56:40;;;;;;;7.57;3.63;;;4.40;99.90;;;;;;5052448;28;20099;-77
2023/03/16 06:59:06;;;;;;;7.50;3.38;;;4.40;99.90;;;;;;5036654;28;20045;-76
2023/03/16 07:01:32;;;;;;;8.90;3.38;;;4.40;99.90;;;;;;5021062;28;20050;-77
2023/03/16 07:03:58;;;;;;;6.80;3.17;;;4.50;99.90;;;;;;5050550;28;20049;-76
2023/03/16 07:06:23;;;;;;;5.72;3.03;;;4.50;99.90;;;;;;5036077;28;20076;-77
2023/03/16 07:08:49;;;;;;;8.23;3.80;;;4.50;99.90;;;;;;5025634;28;20439;-77
2023/03/16 07:11:15;;;;;;;10.27;3.70;;;4.60;99.90;;;;;;5033694;28;20433;-76
2023/03/16 07:13:41;;;;;;;6.00;2.65;;;4.60;99.90;;;;;;5038872;28;20124;-77
2023/03/16 07:16:07;;;;;;;7.50;3.63;;;4.60;99.90;;;;;;5047930;28;20081;-77
2023/03/16 07:18:33;;;;;;;8.05;3.83;;;4.80;99.90;;;;;;5040619;28;20069;-77
2023/03/16 07:20:59;;;;;;;8.43;4.05;;;4.70;99.90;;;;;;5030238;28;20574;-76
2023/03/16 07:23:25;;;;;;;7.38;3.63;;;4.70;99.90;;;;;;5033342;28;20055;-76
2023/03/16 07:25:51;;;;;;;5.45;2.22;;;4.70;99.90;;;;;;5017380;28;20128;-76
2023/03/16 07:28:20;;;;;;;8.73;3.95;;;4.70;99.90;;;;;;5016062;28;20106;-76
2023/03/16 07:30:46;;;;;;;9.23;3.88;;;4.80;99.90;;;;;;5016739;28;20045;-77
2023/03/16 07:33:12;;;;;;;8.00;3.83;;;4.80;99.90;;;;;;5016413;28;20103;-77
2023/03/16 07:35:38;;;;;;;9.52;3.50;;;4.70;99.90;;;;;;5011138;28;20049;-76
2023/03/16 07:38:04;;;;;;;10.45;4.43;;;4.80;99.90;;;;;;5035721;28;20115;-76
2023/03/16 07:40:30;;;;;;;7.65;3.78;;;4.80;99.90;;;;;;5044016;28;20128;-76
2023/03/16 07:42:56;;;;;;;5.75;2.63;;;4.80;99.90;;;;;;5040549;28;20057;-77
2023/03/16 07:45:22;;;;;;;9.55;3.25;;;4.80;99.90;;;;;;5002385;28;20052;-77
2023/03/16 07:47:47;;;;;;;6.20;3.20;;;5.00;99.90;;;;;;5015693;28;20057;-76
2023/03/16 07:50:15;;;;;;;6.32;2.40;;;4.90;99.90;;;;;;5021114;28;20049;-74
2023/03/16 07:52:41;;;;;;;8.88;3.53;;;4.90;99.90;;;;;;5031172;28;20123;-76
2023/03/16 07:55:07;;;;;;;6.75;3.65;;;5.00;99.90;;;;;;5032853;28;20381;-76
2023/03/16 07:57:33;;;;;;;7.07;3.60;;;5.10;99.90;;;;;;5024205;28;20053;-76
2023/03/16 07:59:59;;;;;;;6.95;3.17;;;5.10;99.90;;;;;;5035291;28;20064;-77
2023/03/16 08:02:24;;;;;;;7.07;3.10;;;5.10;99.90;;;;;;5028957;28;20036;-77
2023/03/16 08:04:50;;;;;;;8.23;3.80;;;5.10;99.90;;;;;;5042031;28;20374;-76
2023/03/16 08:07:17;;;;;;;6.68;3.60;;;5.10;99.90;;;;;;5039361;28;20358;-74
2023/03/16 08:09:42;;;;;;;7.07;3.80;;;5.10;99.90;;;;;;5024739;28;20037;-76
2023/03/16 08:12:10;;;;;;;7.45;3.92;;;5.20;99.90;;;;;;5032403;28;20051;-75
2023/03/16 08:14:36;;;;;;;8.18;4.15;;;5.20;99.90;;;;;;5033894;28;20132;-75
2023/03/16 08:17:03;;;;;;;8.10;3.80;;;5.30;99.90;;;;;;5019998;28;20052;-77
2023/03/16 08:19:29;;;;;;;7.78;3.90;;;5.30;99.90;;;;;;5033622;28;20128;-77
2023/03/16 08:21:56;;;;;;;7.90;3.67;;;5.30;99.90;;;;;;5022205;28;20474;-76
2023/03/16 08:24:22;;;;;;;6.65;3.60;;;5.40;99.90;;;;;;5034399;28;20123;-76
2023/03/16 08:26:48;;;;;;;7.60;3.22;;;5.50;99.90;;;;;;5031930;28;20056;-76
2023/03/16 08:29:14;;;;;;;8.23;4.10;;;5.50;99.90;;;;;;5036286;28;20064;-76
2023/03/16 08:31:41;;;;;;;8.23;3.67;;;5.50;99.90;;;;;;5019523;28;20053;-77
2023/03/16 08:34:09;;;;;;;7.07;3.30;;;5.50;99.90;;;;;;5032511;28;20049;-77
2023/03/16 08:36:35;;;;;;;6.15;2.72;;;5.60;99.90;;;;;;5030714;28;20393;-77
2023/03/16 08:39:04;;;;;;;7.32;4.07;;;5.60;99.90;;;;;;5043711;28;20041;-76
2023/03/16 08:41:31;;;;;;;7.78;3.42;;;5.70;99.90;;;;;;5011983;28;20049;-76
2023/03/16 08:43:58;;;;;;;5.90;2.67;;;5.70;99.90;;;;;;5017568;28;20048;-76
2023/03/16 08:46:24;;;;;;;7.15;3.63;;;5.80;99.90;;;;;;5033892;28;20389;-77
2023/03/16 08:48:51;;;;;;;6.60;3.15;;;5.80;99.90;;;;;;5034361;28;20045;-77
2023/03/16 08:51:18;;;;;;;7.78;3.30;;;5.80;99.90;;;;;;5033224;28;20053;-76
2023/03/16 08:53:44;;;;;;;7.97;3.50;;;5.80;99.90;;;;;;5033953;28;20055;-77
2023/03/16 08:56:13;;;;;;;8.98;4.57;;;5.80;99.90;;;;;;5054680;28;20040;-77
2023/03/16 08:58:44;;;;;;;8.75;4.32;;;5.80;99.90;;;;;;5031795;28;20126;-77
2023/03/16 09:01:14;;;;;;;8.18;3.80;;;5.80;99.90;;;;;;5047256;28;20125;-75
2023/03/16 09:03:41;;;;;;;4.32;2.10;;;5.80;99.90;;;;;;5027105;28;20044;-77
2023/03/16 09:06:09;;;;;;;7.30;2.60;;;5.90;99.90;;;;;;5020902;28;20124;-76
2023/03/16 09:08:37;;;;;;;9.77;4.10;;;5.90;99.90;;;;;;5019585;28;20537;-76
2023/03/16 09:11:09;;;;;;;8.40;3.80;;;5.90;99.90;;;;;;5037128;28;20114;-77
2023/03/16 09:13:35;;;;;;;7.93;4.40;;;5.90;99.90;;;;;;5035342;28;20055;-77
2023/03/16 09:16:01;;;;;;;8.02;3.90;;;5.90;99.90;;;;;;5050059;28;20495;-75
2023/03/16 09:18:27;;;;;;;8.38;3.55;;;5.90;99.90;;;;;;5051566;28;20508;-76
2023/03/16 09:20:58;;;;;;;8.25;4.38;;;6.00;99.90;;;;;;5037634;28;20258;-77
2023/03/16 09:23:25;;;;;;;8.05;4.30;;;5.90;99.90;;;;;;5036746;28;20167;-77
2023/03/16 09:25:52;;;;;;;7.05;3.17;;;6.00;99.90;;;;;;5052765;28;20056;-76
2023/03/16 09:28:18;;;;;;;8.68;4.97;;;6.10;99.90;;;;;;5050755;28;20049;-76
2023/03/16 09:30:44;;;;;;;8.05;4.20;;;6.00;99.90;;;;;;5051803;28;20535;-75
2023/03/16 09:33:10;;;;;;;7.80;3.22;;;6.10;99.90;;;;;;5048317;28;20125;-77
2023/03/16 09:35:36;;;;;;;8.43;4.70;;;6.10;99.90;;;;;;5022316;28;20120;-77
2023/03/16 09:38:03;;;;;;;9.07;4.15;;;6.00;99.90;;;;;;5053661;28;20457;-77
2023/03/16 09:40:29;;;;;;;10.38;5.00;;;6.10;99.90;;;;;;5036932;28;20076;-77
2023/03/16 09:43:22;;;;;;;9.77;5.40;;;6.10;99.90;;;;;;5054697;28;20110;-77
2023/03/16 09:46:06;;;;;;;7.20;2.65;;;6.10;99.90;;;;;;5054716;28;20049;-77
2023/03/16 09:48:35;;;;;;;9.80;5.38;;;6.20;99.90;;;;;;5056704;28;20447;-76
2023/03/16 09:51:04;;;;;;;9.25;5.22;;;6.30;99.90;;;;;;5036405;28;20048;-76
2023/03/16 09:53:33;;;;;;;9.55;5.47;;;6.30;99.90;;;;;;5044306;28;20481;-76
2023/03/16 09:56:05;;;;;;;9.07;4.50;;;6.30;99.90;;;;;;5036872;28;20096;-75
2023/03/16 09:58:31;;;;;;;9.40;4.95;;;6.40;99.90;;;;;;5037123;28;20059;-77
2023/03/16 10:01:09;;;;;;;9.38;5.50;;;6.50;99.90;;;;;;5048777;28;20045;-76
2023/03/16 10:03:57;;;;;;;8.20;4.72;;;6.60;99.90;;;;;;5045602;28;20068;-77
2023/03/16 10:06:25;;;;;;;8.00;4.38;;;6.60;99.90;;;;;;5050881;28;20041;-77
2023/03/16 10:09:21;;;;;;;8.95;4.40;;;6.70;99.90;;;;;;5031033;28;20053;-77
2023/03/16 10:11:52;;;;;;;10.32;5.47;;;6.70;99.90;;;;;;5049643;28;20056;-76
2023/03/16 10:14:21;;;;;;;9.13;4.55;;;6.70;99.90;;;;;;5035035;28;20080;-77
2023/03/16 10:16:51;;;;;;;7.32;3.70;;;6.70;99.90;;;;;;5049921;28;20135;-75
2023/03/16 10:19:29;;;;;;;10.07;5.72;;;6.70;99.90;;;;;;5051271;28;20530;-77
2023/03/16 10:21:58;;;;;;;9.40;5.80;;;6.70;99.90;;;;;;5050060;28;20041;-76
2023/03/16 10:24:43;;;;;;;10.07;4.60;;;6.70;99.90;;;;;;5051485;28;20064;-77
2023/03/16 10:27:19;;;;;;;10.60;6.15;;;6.70;99.90;;;;;;5051296;28;20064;-76
2023/03/16 10:29:46;;;;;;;9.40;5.20;;;6.60;99.90;;;;;;5033678;28;20048;-76
2023/03/16 10:32:15;;;;;;;10.73;5.15;;;6.70;99.90;;;;;;5051730;28;20102;-77
2023/03/16 10:34:52;;;;;;;7.63;3.25;;;6.70;99.90;;;;;;5051405;28;20363;-76
2023/03/16 10:37:19;;;;;;;9.00;4.93;;;6.70;99.90;;;;;;5050076;28;20061;-77
2023/03/16 10:39:47;;;;;;;7.90;3.67;;;6.70;99.90;;;;;;5051063;28;20491;-76
2023/03/16 10:42:18;;;;;;;6.22;2.78;;;6.70;99.90;;;;;;5050804;28;20037;-75
2023/03/16 10:44:45;;;;;;;6.90;2.72;;;6.80;99.90;;;;;;5034574;28;20056;-77
2023/03/16 10:47:21;;;;;;;7.10;3.38;;;6.70;99.90;;;;;;5050074;28;20045;-76
2023/03/16 10:49:50;;;;;;;6.30;2.50;;;6.80;99.90;;;;;;5067467;28;20118;-76
2023/03/16 10:52:28;;;;;;;6.75;2.80;;;6.80;99.90;;;;;;5048294;28;20504;-74
2023/03/16 10:55:01;;;;;;;8.18;2.90;;;6.80;99.90;;;;;;5048052;28;20761;-75
2023/03/16 10:57:32;;;;;;;9.05;4.47;;;6.80;99.90;;;;;;5045133;28;20053;-75
2023/03/16 11:00:15;;;;;;;6.18;2.50;;;6.70;99.90;;;;;;5046690;28;20049;-75
2023/03/16 11:02:41;;;;;;;;;;;6.70;99.90;;;;;;5047826;28;20111;-76
2023/03/16 11:05:16;;;;;;;5.35;2.42;;;6.70;99.90;;;;;;5049580;28;20476;-77
2023/03/16 11:07:51;;;;;;;8.50;2.17;;;6.80;99.90;;;;;;5048797;28;20053;-75
2023/03/16 11:10:31;;;;;;;7.50;3.03;;;6.70;99.90;;;;;;5054613;28;20549;-77
2023/03/16 11:13:11;;;;;;;6.13;2.88;;;6.80;99.90;;;;;;5049090;28;20051;-76
2023/03/16 11:15:46;;;;;;;9.82;4.25;;;6.80;99.90;;;;;;5064678;28;20087;-77
2023/03/16 11:18:43;;;;;;;4.95;2.05;;;6.90;99.90;;;;;;5047504;28;20049;-74
2023/03/16 11:21:25;;;;;;;5.60;2.60;;;7.00;99.90;;;;;;5049483;28;20129;-74
2023/03/16 11:23:56;;;;;;;4.75;2.25;;;6.90;99.90;;;;;;5050549;28;20040;-74
2023/03/16 11:26:32;;;;;;;5.47;1.92;;;7.00;99.90;;;;;;5033327;28;20430;-75
2023/03/16 11:29:32;;;;;;;5.30;2.15;;;7.00;99.90;;;;;;5032967;28;20061;-75
2023/03/16 11:32:11;;;;;;;4.68;2.17;;;6.90;99.90;;;;;;5018821;28;20179;-76
2023/03/16 11:34:37;;;;;;;6.55;3.10;;;7.00;99.90;;;;;;5022257;28;20512;-76
2023/03/16 11:37:25;;;;;;;5.30;2.38;;;7.00;99.90;;;;;;5016434;28;20053;-76
2023/03/16 11:40:13;;;;;;;7.85;2.67;;;7.00;99.90;;;;;;5033449;28;20051;-75
2023/03/16 11:42:58;;;;;;;5.07;2.13;;;7.00;99.90;;;;;;5049090;28;20076;-74
2023/03/16 11:45:33;;;;;;;7.95;2.47;;;7.10;99.90;;;;;;5036233;28;20473;-75
2023/03/16 11:48:35;;;;;;;5.53;2.00;;;7.10;99.90;;;;;;5028569;28;20099;-74
2023/03/16 11:51:24;;;;;;;6.45;2.42;;;7.10;99.90;;;;;;5032922;28;20083;-74
2023/03/16 11:53:50;;;;;;;5.45;2.40;;;7.10;99.90;;;;;;5014295;28;20585;-74
2023/03/16 11:56:38;;;;;;;9.98;3.20;;;7.10;99.90;;;;;;5033593;28;20119;-74
2023/03/16 11:59:24;;;;;;;7.90;2.95;;;7.20;99.90;;;;;;5033521;28;20493;-76
2023/03/16 12:01:58;;;;;;;6.13;2.38;;;7.30;99.90;;;;;;5030759;28;20405;-74
2023/03/16 12:04:58;;;;;;;8.88;3.42;;;7.40;99.90;;;;;;5033942;28;20056;-75
2023/03/16 12:07:47;;;;;;;8.50;2.38;;;7.40;99.90;;;;;;5031839;28;20081;-75
2023/03/16 12:10:28;;;;;;;7.43;3.35;;;7.50;99.90;;;;;;5034333;28;20503;-73
2023/03/16 12:13:16;;;;;;;9.20;3.90;;;7.50;99.90;;;;;;5014930;28;20099;-75
2023/03/16 12:15:46;;;;;;;4.88;2.33;;;7.60;99.90;;;;;;5047665;28;20124;-75
2023/03/16 12:18:15;;;;;;;6.20;2.38;;;7.70;99.90;;;;;;5032418;28;20045;-75
2023/03/16 12:21:01;;;;;;;7.78;2.75;;;7.70;99.90;;;;;;5047938;28;20052;-75
2023/03/16 12:23:40;;;;;;;7.30;2.72;;;7.80;99.90;;;;;;5031499;28;20045;-73
2023/03/16 12:26:07;;;;;;;6.10;2.03;;;7.90;99.90;;;;;;5050902;28;20060;-74
2023/03/16 12:28:35;;;;;;;7.88;3.35;;;8.10;99.90;;;;;;5054073;28;20138;-75
2023/03/16 12:31:13;;;;;;;6.40;3.05;;;8.20;99.90;;;;;;5052094;28;20049;-75
2023/03/16 12:34:01;;;;;;;4.88;2.10;;;8.40;99.90;;;;;;5050125;28;20509;-73
2023/03/16 12:37:04;;;;;;;8.50;2.50;;;8.50;99.90;;;;;;5051401;28;20053;-74
2023/03/16 12:39:44;;;;;;;5.13;2.28;;;8.60;99.90;;;;;;5053742;28;20507;-74
2023/03/16 12:42:33;;;;;;;5.93;2.30;;;8.70;99.90;;;;;;5050365;28;20044;-75
2023/03/16 12:45:07;;;;;;;6.75;2.38;;;8.70;99.90;;;;;;5035720;28;20045;-73
2023/03/16 12:47:59;;;;;;;5.80;2.40;;;8.70;99.90;;;;;;5051257;28;20048;-74
2023/03/16 12:50:26;;;;;;;5.43;2.35;;;8.70;99.90;;;;;;5049880;28;20053;-74
2023/03/16 12:52:52;;;;;;;2.70;1.25;;;8.70;99.90;;;;;;5048658;28;20124;-73
2023/03/16 12:55:20;;;;;;;7.35;3.38;;;8.70;99.90;;;;;;5043202;28;20045;-74
2023/03/16 12:57:50;;;;;;;3.55;1.38;;;8.80;99.90;;;;;;5052645;28;20072;-75
2023/03/16 13:00:17;;;;;;;7.60;2.60;;;8.90;99.90;;;;;;5051198;28;20053;-73
2023/03/16 13:02:52;;;;;;;5.78;3.15;;;8.90;99.90;;;;;;5050646;28;20545;-73
2023/03/16 13:05:30;;;;;;;6.13;3.40;;;8.90;99.90;;;;;;5051095;28;20492;-74
2023/03/16 13:08:14;;;;;;;5.93;2.55;;;8.90;99.90;;;;;;5051800;28;20522;-74
2023/03/16 13:10:42;;;;;;;4.22;1.58;;;8.90;99.90;;;;;;5042639;28;20060;-75